sensor_id;sensor_type;location;lat;lon;timestamp;temperature;humidity
65478;SHT31;53678;39.642;22.430;2022-10-13T00:00:28;17.70;79.72
65478;SHT31;53678;39.642;22.430;2022-10-13T00:02:54;17.67;79.87
65478;SHT31;53678;39.642;22.430;2022-10-13T00:05:20;17.67;80.13
65478;SHT31;53678;39.642;22.430;2022-10-13T00:07:46;17.60;80.12
65478;SHT31;53678;39.642;22.430;2022-10-13T00:10:12;17.66;80.01
65478;SHT31;53678;39.642;22.430;2022-10-13T00:12:38;17.63;80.25
65478;SHT31;53678;39.642;22.430;2022-10-13T00:15:08;17.63;79.94
65478;SHT31;53678;39.642;22.430;2022-10-13T00:17:34;17.65;79.82
65478;SHT31;53678;39.642;22.430;2022-10-13T00:20:04;17.60;79.87
65478;SHT31;53678;39.642;22.430;2022-10-13T00:22:30;17.62;79.71
65478;SHT31;53678;39.642;22.430;2022-10-13T00:24:57;17.63;79.80
65478;SHT31;53678;39.642;22.430;2022-10-13T00:27:23;17.70;79.65
65478;SHT31;53678;39.642;22.430;2022-10-13T00:29:49;17.76;79.50
65478;SHT31;53678;39.642;22.430;2022-10-13T00:32:14;17.81;79.28
65478;SHT31;53678;39.642;22.430;2022-10-13T00:34:40;17.87;79.11
65478;SHT31;53678;39.642;22.430;2022-10-13T00:37:06;17.91;78.82
65478;SHT31;53678;39.642;22.430;2022-10-13T00:39:32;17.84;79.15
65478;SHT31;53678;39.642;22.430;2022-10-13T00:41:59;17.89;78.96
65478;SHT31;53678;39.642;22.430;2022-10-13T00:47:19;17.70;79.64
65478;SHT31;53678;39.642;22.430;2022-10-13T00:49:47;17.74;79.60
65478;SHT31;53678;39.642;22.430;2022-10-13T00:52:14;17.69;79.71
65478;SHT31;53678;39.642;22.430;2022-10-13T00:54:42;17.52;80.13
65478;SHT31;53678;39.642;22.430;2022-10-13T01:00:50;17.65;79.88
65478;SHT31;53678;39.642;22.430;2022-10-13T01:03:20;17.65;79.94
65478;SHT31;53678;39.642;22.430;2022-10-13T01:05:47;17.69;79.74
65478;SHT31;53678;39.642;22.430;2022-10-13T01:08:14;17.72;79.52
65478;SHT31;53678;39.642;22.430;2022-10-13T01:20:31;17.83;78.79
65478;SHT31;53678;39.642;22.430;2022-10-13T01:23:17;17.86;78.57
65478;SHT31;53678;39.642;22.430;2022-10-13T01:26:08;17.84;78.51
65478;SHT31;53678;39.642;22.430;2022-10-13T01:39:40;17.79;78.71
65478;SHT31;53678;39.642;22.430;2022-10-13T01:42:15;17.67;78.92
65478;SHT31;53678;39.642;22.430;2022-10-13T01:44:48;17.62;79.49
65478;SHT31;53678;39.642;22.430;2022-10-13T01:47:16;17.67;79.25
65478;SHT31;53678;39.642;22.430;2022-10-13T01:49:43;17.70;79.29
65478;SHT31;53678;39.642;22.430;2022-10-13T01:52:15;17.76;79.01
65478;SHT31;53678;39.642;22.430;2022-10-13T01:54:49;17.72;79.30
65478;SHT31;53678;39.642;22.430;2022-10-13T01:57:34;17.54;79.58
65478;SHT31;53678;39.642;22.430;2022-10-13T02:00:13;17.47;79.78
65478;SHT31;53678;39.642;22.430;2022-10-13T02:03:16;17.50;79.65
65478;SHT31;53678;39.642;22.430;2022-10-13T02:08:09;17.60;79.55
65478;SHT31;53678;39.642;22.430;2022-10-13T02:10:56;17.66;79.34
65478;SHT31;53678;39.642;22.430;2022-10-13T02:13:28;17.76;78.60
65478;SHT31;53678;39.642;22.430;2022-10-13T02:15:58;17.63;78.41
65478;SHT31;53678;39.642;22.430;2022-10-13T02:18:44;17.56;78.81
65478;SHT31;53678;39.642;22.430;2022-10-13T02:21:12;17.45;79.55
65478;SHT31;53678;39.642;22.430;2022-10-13T02:23:41;17.39;79.76
65478;SHT31;53678;39.642;22.430;2022-10-13T02:26:08;17.36;80.16
65478;SHT31;53678;39.642;22.430;2022-10-13T02:28:36;17.33;80.23
65478;SHT31;53678;39.642;22.430;2022-10-13T02:31:03;17.36;80.20
65478;SHT31;53678;39.642;22.430;2022-10-13T02:33:32;17.32;80.37
65478;SHT31;53678;39.642;22.430;2022-10-13T02:35:58;17.36;80.03
65478;SHT31;53678;39.642;22.430;2022-10-13T02:38:23;17.52;79.06
65478;SHT31;53678;39.642;22.430;2022-10-13T02:40:49;17.47;79.56
65478;SHT31;53678;39.642;22.430;2022-10-13T02:43:15;17.43;79.75
65478;SHT31;53678;39.642;22.430;2022-10-13T02:45:42;17.32;80.25
65478;SHT31;53678;39.642;22.430;2022-10-13T02:48:08;17.28;80.45
65478;SHT31;53678;39.642;22.430;2022-10-13T02:50:34;17.22;80.68
65478;SHT31;53678;39.642;22.430;2022-10-13T02:52:59;17.28;80.63
65478;SHT31;53678;39.642;22.430;2022-10-13T02:55:25;17.32;80.70
65478;SHT31;53678;39.642;22.430;2022-10-13T02:57:55;17.39;80.76
65478;SHT31;53678;39.642;22.430;2022-10-13T03:00:21;17.47;80.92
65478;SHT31;53678;39.642;22.430;2022-10-13T03:02:47;17.45;80.94
65478;SHT31;53678;39.642;22.430;2022-10-13T03:05:13;17.46;81.42
65478;SHT31;53678;39.642;22.430;2022-10-13T03:07:39;17.33;81.50
65478;SHT31;53678;39.642;22.430;2022-10-13T03:10:05;17.25;82.06
65478;SHT31;53678;39.642;22.430;2022-10-13T03:12:32;17.16;82.24
65478;SHT31;53678;39.642;22.430;2022-10-13T03:14:58;17.02;82.17
65478;SHT31;53678;39.642;22.430;2022-10-13T03:17:23;16.94;82.70
65478;SHT31;53678;39.642;22.430;2022-10-13T03:19:50;16.95;82.89
65478;SHT31;53678;39.642;22.430;2022-10-13T03:22:17;17.00;82.60
65478;SHT31;53678;39.642;22.430;2022-10-13T03:24:44;17.14;81.91
65478;SHT31;53678;39.642;22.430;2022-10-13T03:27:09;17.14;81.85
65478;SHT31;53678;39.642;22.430;2022-10-13T03:29:36;17.22;81.47
65478;SHT31;53678;39.642;22.430;2022-10-13T03:32:02;17.21;81.52
65478;SHT31;53678;39.642;22.430;2022-10-13T03:34:28;17.23;81.02
65478;SHT31;53678;39.642;22.430;2022-10-13T03:36:54;17.21;81.06
65478;SHT31;53678;39.642;22.430;2022-10-13T03:39:20;17.15;80.82
65478;SHT31;53678;39.642;22.430;2022-10-13T03:41:46;17.07;80.84
65478;SHT31;53678;39.642;22.430;2022-10-13T03:44:12;17.07;80.62
65478;SHT31;53678;39.642;22.430;2022-10-13T03:46:39;17.02;80.48
65478;SHT31;53678;39.642;22.430;2022-10-13T03:49:05;17.04;80.45
65478;SHT31;53678;39.642;22.430;2022-10-13T03:51:31;17.01;80.32
65478;SHT31;53678;39.642;22.430;2022-10-13T03:53:57;16.98;80.49
65478;SHT31;53678;39.642;22.430;2022-10-13T03:56:25;16.96;79.94
65478;SHT31;53678;39.642;22.430;2022-10-13T03:58:53;16.98;79.11
65478;SHT31;53678;39.642;22.430;2022-10-13T04:01:25;17.00;78.57
65478;SHT31;53678;39.642;22.430;2022-10-13T04:03:52;16.95;77.87
65478;SHT31;53678;39.642;22.430;2022-10-13T04:06:19;16.98;77.92
65478;SHT31;53678;39.642;22.430;2022-10-13T04:08:45;16.94;77.83
65478;SHT31;53678;39.642;22.430;2022-10-13T04:11:12;16.98;78.01
65478;SHT31;53678;39.642;22.430;2022-10-13T04:13:41;16.96;76.85
65478;SHT31;53678;39.642;22.430;2022-10-13T04:16:12;17.05;77.13
65478;SHT31;53678;39.642;22.430;2022-10-13T04:18:38;17.11;77.04
65478;SHT31;53678;39.642;22.430;2022-10-13T04:21:09;17.12;77.12
65478;SHT31;53678;39.642;22.430;2022-10-13T04:23:35;17.11;77.36
65478;SHT31;53678;39.642;22.430;2022-10-13T04:26:03;17.16;77.16
65478;SHT31;53678;39.642;22.430;2022-10-13T04:28:29;17.12;77.80
65478;SHT31;53678;39.642;22.430;2022-10-13T04:30:58;17.10;77.93
65478;SHT31;53678;39.642;22.430;2022-10-13T04:33:27;17.10;78.20
65478;SHT31;53678;39.642;22.430;2022-10-13T04:35:53;17.05;78.36
65478;SHT31;53678;39.642;22.430;2022-10-13T04:38:19;17.00;78.86
65478;SHT31;53678;39.642;22.430;2022-10-13T04:40:44;17.01;78.49
65478;SHT31;53678;39.642;22.430;2022-10-13T04:43:10;16.91;78.86
65478;SHT31;53678;39.642;22.430;2022-10-13T04:45:36;16.92;78.90
65478;SHT31;53678;39.642;22.430;2022-10-13T04:48:02;16.74;79.14
65478;SHT31;53678;39.642;22.430;2022-10-13T04:50:28;16.57;79.63
65478;SHT31;53678;39.642;22.430;2022-10-13T04:52:58;16.60;79.59
65478;SHT31;53678;39.642;22.430;2022-10-13T04:55:24;16.84;78.58
65478;SHT31;53678;39.642;22.430;2022-10-13T04:57:49;16.77;78.79
65478;SHT31;53678;39.642;22.430;2022-10-13T05:00:15;16.81;78.73
65478;SHT31;53678;39.642;22.430;2022-10-13T05:02:41;16.87;78.75
65478;SHT31;53678;39.642;22.430;2022-10-13T05:05:08;16.84;78.41
65478;SHT31;53678;39.642;22.430;2022-10-13T05:07:34;16.91;78.51
65478;SHT31;53678;39.642;22.430;2022-10-13T05:10:00;17.04;77.92
65478;SHT31;53678;39.642;22.430;2022-10-13T05:12:26;16.77;78.45
65478;SHT31;53678;39.642;22.430;2022-10-13T05:14:52;16.77;78.75
65478;SHT31;53678;39.642;22.430;2022-10-13T05:17:18;16.75;79.37
65478;SHT31;53678;39.642;22.430;2022-10-13T05:19:44;16.83;78.49
65478;SHT31;53678;39.642;22.430;2022-10-13T05:22:10;16.89;78.32
65478;SHT31;53678;39.642;22.430;2022-10-13T05:24:40;16.88;78.05
65478;SHT31;53678;39.642;22.430;2022-10-13T05:27:09;16.92;77.70
65478;SHT31;53678;39.642;22.430;2022-10-13T05:29:36;16.68;78.46
65478;SHT31;53678;39.642;22.430;2022-10-13T05:32:02;16.84;78.12
65478;SHT31;53678;39.642;22.430;2022-10-13T05:34:28;16.95;77.79
65478;SHT31;53678;39.642;22.430;2022-10-13T05:36:54;17.01;76.71
65478;SHT31;53678;39.642;22.430;2022-10-13T05:39:21;17.35;75.81
65478;SHT31;53678;39.642;22.430;2022-10-13T05:41:46;18.00;73.17
65478;SHT31;53678;39.642;22.430;2022-10-13T05:44:19;18.21;73.12
65478;SHT31;53678;39.642;22.430;2022-10-13T05:46:55;18.25;72.37
65478;SHT31;53678;39.642;22.430;2022-10-13T05:49:21;18.35;71.69
65478;SHT31;53678;39.642;22.430;2022-10-13T05:51:50;18.70;70.91
65478;SHT31;53678;39.642;22.430;2022-10-13T05:56:53;19.89;67.64
65478;SHT31;53678;39.642;22.430;2022-10-13T05:59:20;19.90;66.98
65478;SHT31;53678;39.642;22.430;2022-10-13T06:01:48;19.69;67.90
65478;SHT31;53678;39.642;22.430;2022-10-13T06:04:19;19.47;68.60
65478;SHT31;53678;39.642;22.430;2022-10-13T06:06:47;18.96;70.24
65478;SHT31;53678;39.642;22.430;2022-10-13T06:09:14;18.73;71.33
65478;SHT31;53678;39.642;22.430;2022-10-13T06:11:40;18.39;72.17
65478;SHT31;53678;39.642;22.430;2022-10-13T06:14:06;17.90;74.27
65478;SHT31;53678;39.642;22.430;2022-10-13T06:16:34;18.11;73.63
65478;SHT31;53678;39.642;22.430;2022-10-13T06:19:00;18.28;72.96
65478;SHT31;53678;39.642;22.430;2022-10-13T06:21:26;18.27;73.28
65478;SHT31;53678;39.642;22.430;2022-10-13T06:23:52;18.32;73.94
65478;SHT31;53678;39.642;22.430;2022-10-13T06:26:19;18.32;74.84
65478;SHT31;53678;39.642;22.430;2022-10-13T06:28:44;18.38;75.36
65478;SHT31;53678;39.642;22.430;2022-10-13T06:31:10;18.24;76.78
65478;SHT31;53678;39.642;22.430;2022-10-13T06:33:36;18.35;76.50
65478;SHT31;53678;39.642;22.430;2022-10-13T06:36:04;18.28;76.93
65478;SHT31;53678;39.642;22.430;2022-10-13T06:38:31;18.22;77.05
65478;SHT31;53678;39.642;22.430;2022-10-13T06:41:04;18.37;76.51
65478;SHT31;53678;39.642;22.430;2022-10-13T06:43:31;18.37;76.52
65478;SHT31;53678;39.642;22.430;2022-10-13T06:46:00;18.53;75.67
65478;SHT31;53678;39.642;22.430;2022-10-13T06:48:27;18.88;74.68
65478;SHT31;53678;39.642;22.430;2022-10-13T06:50:53;19.32;73.85
65478;SHT31;53678;39.642;22.430;2022-10-13T06:53:19;19.65;72.71
65478;SHT31;53678;39.642;22.430;2022-10-13T06:55:45;19.85;72.58
65478;SHT31;53678;39.642;22.430;2022-10-13T06:58:11;20.22;71.26
65478;SHT31;53678;39.642;22.430;2022-10-13T07:00:39;20.48;69.69
65478;SHT31;53678;39.642;22.430;2022-10-13T07:03:05;20.53;69.53
65478;SHT31;53678;39.642;22.430;2022-10-13T07:05:31;20.68;68.91
65478;SHT31;53678;39.642;22.430;2022-10-13T07:07:57;20.60;68.36
65478;SHT31;53678;39.642;22.430;2022-10-13T07:10:23;20.95;67.63
65478;SHT31;53678;39.642;22.430;2022-10-13T07:12:49;21.64;65.77
65478;SHT31;53678;39.642;22.430;2022-10-13T07:15:14;21.59;65.62
65478;SHT31;53678;39.642;22.430;2022-10-13T07:17:41;21.74;64.58
65478;SHT31;53678;39.642;22.430;2022-10-13T07:20:07;22.28;63.65
65478;SHT31;53678;39.642;22.430;2022-10-13T07:22:33;21.96;64.16
65478;SHT31;53678;39.642;22.430;2022-10-13T07:24:59;21.93;63.76
65478;SHT31;53678;39.642;22.430;2022-10-13T07:27:26;21.62;64.44
65478;SHT31;53678;39.642;22.430;2022-10-13T07:29:52;21.28;65.32
65478;SHT31;53678;39.642;22.430;2022-10-13T07:32:18;21.52;64.57
65478;SHT31;53678;39.642;22.430;2022-10-13T07:34:44;21.31;65.58
65478;SHT31;53678;39.642;22.430;2022-10-13T07:37:09;21.62;64.66
65478;SHT31;53678;39.642;22.430;2022-10-13T07:39:36;21.33;65.77
65478;SHT31;53678;39.642;22.430;2022-10-13T07:42:02;21.52;64.57
65478;SHT31;53678;39.642;22.430;2022-10-13T07:44:28;21.21;65.17
65478;SHT31;53678;39.642;22.430;2022-10-13T07:46:55;21.71;64.43
65478;SHT31;53678;39.642;22.430;2022-10-13T07:49:21;21.84;63.74
65478;SHT31;53678;39.642;22.430;2022-10-13T07:51:47;21.06;64.76
65478;SHT31;53678;39.642;22.430;2022-10-13T07:54:16;20.46;67.60
65478;SHT31;53678;39.642;22.430;2022-10-13T07:56:43;21.56;64.53
65478;SHT31;53678;39.642;22.430;2022-10-13T07:59:11;21.31;64.07
65478;SHT31;53678;39.642;22.430;2022-10-13T08:01:37;21.45;63.48
65478;SHT31;53678;39.642;22.430;2022-10-13T08:04:03;21.77;63.23
65478;SHT31;53678;39.642;22.430;2022-10-13T08:06:28;21.84;61.92
65478;SHT31;53678;39.642;22.430;2022-10-13T08:08:56;21.42;61.34
65478;SHT31;53678;39.642;22.430;2022-10-13T08:11:25;21.90;61.27
65478;SHT31;53678;39.642;22.430;2022-10-13T08:13:51;21.33;62.32
65478;SHT31;53678;39.642;22.430;2022-10-13T08:16:21;21.89;61.27
65478;SHT31;53678;39.642;22.430;2022-10-13T08:18:47;22.41;60.68
65478;SHT31;53678;39.642;22.430;2022-10-13T08:21:15;22.41;61.03
65478;SHT31;53678;39.642;22.430;2022-10-13T08:23:44;22.51;60.12
65478;SHT31;53678;39.642;22.430;2022-10-13T08:26:31;22.31;60.19
65478;SHT31;53678;39.642;22.430;2022-10-13T08:28:57;22.44;58.84
65478;SHT31;53678;39.642;22.430;2022-10-13T08:31:23;22.66;58.55
65478;SHT31;53678;39.642;22.430;2022-10-13T08:33:50;22.75;58.47
65478;SHT31;53678;39.642;22.430;2022-10-13T08:36:17;22.73;55.58
65478;SHT31;53678;39.642;22.430;2022-10-13T08:38:44;22.53;57.13
65478;SHT31;53678;39.642;22.430;2022-10-13T08:41:23;22.45;58.62
65478;SHT31;53678;39.642;22.430;2022-10-13T08:43:53;22.55;58.55
65478;SHT31;53678;39.642;22.430;2022-10-13T08:46:27;22.12;60.03
65478;SHT31;53678;39.642;22.430;2022-10-13T08:48:54;21.83;59.81
65478;SHT31;53678;39.642;22.430;2022-10-13T08:51:21;22.44;57.25
65478;SHT31;53678;39.642;22.430;2022-10-13T08:53:48;22.56;56.66
65478;SHT31;53678;39.642;22.430;2022-10-13T08:56:19;22.59;54.74
65478;SHT31;53678;39.642;22.430;2022-10-13T08:58:48;22.60;55.07
65478;SHT31;53678;39.642;22.430;2022-10-13T09:06:40;22.83;53.51
65478;SHT31;53678;39.642;22.430;2022-10-13T09:09:13;22.42;54.38
65478;SHT31;53678;39.642;22.430;2022-10-13T09:11:46;22.27;55.66
65478;SHT31;53678;39.642;22.430;2022-10-13T09:14:26;22.53;55.52
65478;SHT31;53678;39.642;22.430;2022-10-13T09:16:55;22.65;55.22
65478;SHT31;53678;39.642;22.430;2022-10-13T09:19:27;22.90;54.59
65478;SHT31;53678;39.642;22.430;2022-10-13T09:22:26;22.92;54.37
65478;SHT31;53678;39.642;22.430;2022-10-13T09:25:09;22.92;54.06
65478;SHT31;53678;39.642;22.430;2022-10-13T09:27:47;22.76;54.91
65478;SHT31;53678;39.642;22.430;2022-10-13T09:35:46;23.10;54.50
65478;SHT31;53678;39.642;22.430;2022-10-13T09:38:22;23.16;53.54
65478;SHT31;53678;39.642;22.430;2022-10-13T09:41:06;23.24;53.00
65478;SHT31;53678;39.642;22.430;2022-10-13T09:49:32;23.53;51.45
65478;SHT31;53678;39.642;22.430;2022-10-13T09:52:24;23.21;50.32
65478;SHT31;53678;39.642;22.430;2022-10-13T09:54:58;23.48;48.39
65478;SHT31;53678;39.642;22.430;2022-10-13T09:57:39;23.26;50.17
65478;SHT31;53678;39.642;22.430;2022-10-13T10:00:35;23.06;50.03
65478;SHT31;53678;39.642;22.430;2022-10-13T10:03:09;23.28;48.95
65478;SHT31;53678;39.642;22.430;2022-10-13T10:10:52;23.90;46.93
65478;SHT31;53678;39.642;22.430;2022-10-13T10:13:19;24.09;46.57
65478;SHT31;53678;39.642;22.430;2022-10-13T10:18:36;24.20;44.40
65478;SHT31;53678;39.642;22.430;2022-10-13T10:24:00;24.33;43.73
65478;SHT31;53678;39.642;22.430;2022-10-13T10:29:27;24.43;43.57
65478;SHT31;53678;39.642;22.430;2022-10-13T10:34:41;23.79;46.07
65478;SHT31;53678;39.642;22.430;2022-10-13T10:37:21;23.58;46.37
65478;SHT31;53678;39.642;22.430;2022-10-13T10:43:07;23.72;44.03
65478;SHT31;53678;39.642;22.430;2022-10-13T10:45:38;23.10;44.86
65478;SHT31;53678;39.642;22.430;2022-10-13T10:50:38;23.71;44.59
65478;SHT31;53678;39.642;22.430;2022-10-13T11:01:04;23.53;45.77
65478;SHT31;53678;39.642;22.430;2022-10-13T11:03:45;23.66;45.22
65478;SHT31;53678;39.642;22.430;2022-10-13T11:08:43;23.65;46.24
65478;SHT31;53678;39.642;22.430;2022-10-13T11:16:32;23.57;46.78
65478;SHT31;53678;39.642;22.430;2022-10-13T11:43:38;23.43;45.50
65478;SHT31;53678;39.642;22.430;2022-10-13T11:46:18;23.14;45.12
65478;SHT31;53678;39.642;22.430;2022-10-13T11:49:13;23.44;44.95
65478;SHT31;53678;39.642;22.430;2022-10-13T11:52:06;23.40;44.33
65478;SHT31;53678;39.642;22.430;2022-10-13T11:57:34;23.44;44.56
65478;SHT31;53678;39.642;22.430;2022-10-13T12:00:01;23.37;45.01
65478;SHT31;53678;39.642;22.430;2022-10-13T12:02:50;23.47;45.16
65478;SHT31;53678;39.642;22.430;2022-10-13T12:07:49;23.66;44.30
65478;SHT31;53678;39.642;22.430;2022-10-13T12:10:29;23.64;44.42
65478;SHT31;53678;39.642;22.430;2022-10-13T12:12:55;23.31;45.12
65478;SHT31;53678;39.642;22.430;2022-10-13T12:15:43;23.68;44.81
65478;SHT31;53678;39.642;22.430;2022-10-13T12:18:21;23.88;44.44
65478;SHT31;53678;39.642;22.430;2022-10-13T12:20:58;24.14;43.65
65478;SHT31;53678;39.642;22.430;2022-10-13T12:23:27;24.19;44.07
65478;SHT31;53678;39.642;22.430;2022-10-13T12:25:54;24.03;44.10
65478;SHT31;53678;39.642;22.430;2022-10-13T12:30:59;23.51;45.63
65478;SHT31;53678;39.642;22.430;2022-10-13T12:33:34;23.68;45.13
65478;SHT31;53678;39.642;22.430;2022-10-13T12:36:17;23.66;45.08
65478;SHT31;53678;39.642;22.430;2022-10-13T12:48:00;23.78;46.29
65478;SHT31;53678;39.642;22.430;2022-10-13T12:52:55;23.90;46.98
65478;SHT31;53678;39.642;22.430;2022-10-13T13:01:44;24.01;46.97
65478;SHT31;53678;39.642;22.430;2022-10-13T13:04:24;23.92;47.10
65478;SHT31;53678;39.642;22.430;2022-10-13T13:06:57;23.38;48.33
65478;SHT31;53678;39.642;22.430;2022-10-13T13:09:31;23.17;48.70
65478;SHT31;53678;39.642;22.430;2022-10-13T13:12:27;23.69;48.31
65478;SHT31;53678;39.642;22.430;2022-10-13T13:14:55;23.68;47.89
65478;SHT31;53678;39.642;22.430;2022-10-13T13:20:53;23.62;49.75
65478;SHT31;53678;39.642;22.430;2022-10-13T13:23:19;23.57;50.51
65478;SHT31;53678;39.642;22.430;2022-10-13T13:25:46;23.71;50.88
65478;SHT31;53678;39.642;22.430;2022-10-13T13:28:14;23.45;52.05
65478;SHT31;53678;39.642;22.430;2022-10-13T13:30:40;23.48;52.48
65478;SHT31;53678;39.642;22.430;2022-10-13T13:33:09;23.64;53.76
65478;SHT31;53678;39.642;22.430;2022-10-13T13:35:36;23.45;54.47
65478;SHT31;53678;39.642;22.430;2022-10-13T13:38:03;23.18;54.51
65478;SHT31;53678;39.642;22.430;2022-10-13T13:40:29;23.08;54.68
65478;SHT31;53678;39.642;22.430;2022-10-13T13:42:56;23.38;54.72
65478;SHT31;53678;39.642;22.430;2022-10-13T13:45:26;23.11;56.28
65478;SHT31;53678;39.642;22.430;2022-10-13T13:47:52;23.16;55.53
65478;SHT31;53678;39.642;22.430;2022-10-13T13:50:27;22.97;56.50
65478;SHT31;53678;39.642;22.430;2022-10-13T13:52:56;22.86;56.62
65478;SHT31;53678;39.642;22.430;2022-10-13T13:55:23;22.96;56.54
65478;SHT31;53678;39.642;22.430;2022-10-13T13:57:49;22.83;56.54
65478;SHT31;53678;39.642;22.430;2022-10-13T14:00:16;22.83;56.72
65478;SHT31;53678;39.642;22.430;2022-10-13T14:02:45;22.59;57.24
65478;SHT31;53678;39.642;22.430;2022-10-13T14:05:12;22.52;56.97
65478;SHT31;53678;39.642;22.430;2022-10-13T14:07:39;22.51;57.30
65478;SHT31;53678;39.642;22.430;2022-10-13T14:10:06;22.42;57.49
65478;SHT31;53678;39.642;22.430;2022-10-13T14:12:34;22.27;57.58
65478;SHT31;53678;39.642;22.430;2022-10-13T14:15:00;22.20;57.65
65478;SHT31;53678;39.642;22.430;2022-10-13T14:17:26;22.21;57.55
65478;SHT31;53678;39.642;22.430;2022-10-13T14:19:53;22.27;57.14
65478;SHT31;53678;39.642;22.430;2022-10-13T14:22:20;22.22;57.03
65478;SHT31;53678;39.642;22.430;2022-10-13T14:24:46;22.17;57.07
65478;SHT31;53678;39.642;22.430;2022-10-13T14:27:12;22.10;57.38
65478;SHT31;53678;39.642;22.430;2022-10-13T14:29:38;22.18;57.33
65478;SHT31;53678;39.642;22.430;2022-10-13T14:32:04;21.87;57.72
65478;SHT31;53678;39.642;22.430;2022-10-13T14:34:30;21.81;58.11
65478;SHT31;53678;39.642;22.430;2022-10-13T14:36:58;21.77;58.17
65478;SHT31;53678;39.642;22.430;2022-10-13T14:39:24;21.76;57.21
65478;SHT31;53678;39.642;22.430;2022-10-13T14:41:50;21.77;57.22
65478;SHT31;53678;39.642;22.430;2022-10-13T14:44:16;21.71;57.04
65478;SHT31;53678;39.642;22.430;2022-10-13T14:46:43;21.57;57.60
65478;SHT31;53678;39.642;22.430;2022-10-13T14:49:10;21.52;57.53
65478;SHT31;53678;39.642;22.430;2022-10-13T14:51:41;21.56;57.61
65478;SHT31;53678;39.642;22.430;2022-10-13T14:54:07;21.49;58.27
65478;SHT31;53678;39.642;22.430;2022-10-13T14:56:33;21.54;58.36
65478;SHT31;53678;39.642;22.430;2022-10-13T14:59:03;21.49;58.45
65478;SHT31;53678;39.642;22.430;2022-10-13T15:01:36;21.47;58.30
65478;SHT31;53678;39.642;22.430;2022-10-13T15:04:03;21.35;58.86
65478;SHT31;53678;39.642;22.430;2022-10-13T15:06:30;21.25;59.32
65478;SHT31;53678;39.642;22.430;2022-10-13T15:08:56;21.11;59.81
65478;SHT31;53678;39.642;22.430;2022-10-13T15:11:23;20.95;60.41
65478;SHT31;53678;39.642;22.430;2022-10-13T15:13:49;20.99;60.60
65478;SHT31;53678;39.642;22.430;2022-10-13T15:16:24;20.78;61.37
65478;SHT31;53678;39.642;22.430;2022-10-13T15:18:50;20.61;61.68
65478;SHT31;53678;39.642;22.430;2022-10-13T15:21:18;20.48;61.29
65478;SHT31;53678;39.642;22.430;2022-10-13T15:23:45;20.57;60.72
65478;SHT31;53678;39.642;22.430;2022-10-13T15:26:12;20.63;60.17
65478;SHT31;53678;39.642;22.430;2022-10-13T15:28:42;20.51;59.86
65478;SHT31;53678;39.642;22.430;2022-10-13T15:31:09;20.55;59.98
65478;SHT31;53678;39.642;22.430;2022-10-13T15:33:35;20.43;60.71
65478;SHT31;53678;39.642;22.430;2022-10-13T15:36:00;20.26;61.28
65478;SHT31;53678;39.642;22.430;2022-10-13T15:38:26;20.20;62.18
65478;SHT31;53678;39.642;22.430;2022-10-13T15:41:00;20.12;62.33
65478;SHT31;53678;39.642;22.430;2022-10-13T15:43:27;20.02;63.06
65478;SHT31;53678;39.642;22.430;2022-10-13T15:46:04;20.06;62.89
65478;SHT31;53678;39.642;22.430;2022-10-13T15:48:30;20.04;62.96
65478;SHT31;53678;39.642;22.430;2022-10-13T15:50:56;20.05;63.12
65478;SHT31;53678;39.642;22.430;2022-10-13T15:53:23;19.97;63.27
65478;SHT31;53678;39.642;22.430;2022-10-13T15:55:49;19.85;63.65
65478;SHT31;53678;39.642;22.430;2022-10-13T15:58:15;19.89;63.31
65478;SHT31;53678;39.642;22.430;2022-10-13T16:00:42;19.85;63.02
65478;SHT31;53678;39.642;22.430;2022-10-13T16:03:16;19.92;62.94
65478;SHT31;53678;39.642;22.430;2022-10-13T16:05:44;19.92;62.63
65478;SHT31;53678;39.642;22.430;2022-10-13T16:08:11;20.04;62.15
65478;SHT31;53678;39.642;22.430;2022-10-13T16:10:41;19.95;61.12
65478;SHT31;53678;39.642;22.430;2022-10-13T16:13:09;19.95;61.27
65478;SHT31;53678;39.642;22.430;2022-10-13T16:15:37;20.02;61.00
65478;SHT31;53678;39.642;22.430;2022-10-13T16:18:03;20.12;60.65
65478;SHT31;53678;39.642;22.430;2022-10-13T16:20:29;20.19;59.62
65478;SHT31;53678;39.642;22.430;2022-10-13T16:23:00;20.04;59.22
65478;SHT31;53678;39.642;22.430;2022-10-13T16:25:25;20.04;59.18
65478;SHT31;53678;39.642;22.430;2022-10-13T16:27:51;20.10;58.86
65478;SHT31;53678;39.642;22.430;2022-10-13T16:30:17;20.00;59.09
65478;SHT31;53678;39.642;22.430;2022-10-13T16:32:43;19.95;59.37
65478;SHT31;53678;39.642;22.430;2022-10-13T16:35:09;19.93;59.76
65478;SHT31;53678;39.642;22.430;2022-10-13T16:37:35;20.09;59.74
65478;SHT31;53678;39.642;22.430;2022-10-13T16:40:01;19.95;60.36
65478;SHT31;53678;39.642;22.430;2022-10-13T16:42:27;19.99;60.62
65478;SHT31;53678;39.642;22.430;2022-10-13T16:44:53;19.92;60.94
65478;SHT31;53678;39.642;22.430;2022-10-13T16:47:19;19.89;61.20
65478;SHT31;53678;39.642;22.430;2022-10-13T16:49:45;19.99;61.28
65478;SHT31;53678;39.642;22.430;2022-10-13T16:52:13;19.92;61.84
65478;SHT31;53678;39.642;22.430;2022-10-13T16:54:39;19.83;62.21
65478;SHT31;53678;39.642;22.430;2022-10-13T16:57:05;19.85;61.67
65478;SHT31;53678;39.642;22.430;2022-10-13T16:59:31;19.96;61.61
65478;SHT31;53678;39.642;22.430;2022-10-13T17:01:57;19.95;61.48
65478;SHT31;53678;39.642;22.430;2022-10-13T17:04:23;19.89;61.57
65478;SHT31;53678;39.642;22.430;2022-10-13T17:06:49;19.81;61.48
65478;SHT31;53678;39.642;22.430;2022-10-13T17:09:15;19.83;61.23
65478;SHT31;53678;39.642;22.430;2022-10-13T17:11:43;19.86;60.88
65478;SHT31;53678;39.642;22.430;2022-10-13T17:14:10;19.85;60.94
65478;SHT31;53678;39.642;22.430;2022-10-13T17:16:35;19.86;60.76
65478;SHT31;53678;39.642;22.430;2022-10-13T17:19:02;20.02;60.37
65478;SHT31;53678;39.642;22.430;2022-10-13T17:21:37;19.95;60.20
65478;SHT31;53678;39.642;22.430;2022-10-13T17:24:06;19.81;60.46
65478;SHT31;53678;39.642;22.430;2022-10-13T17:26:32;19.79;60.42
65478;SHT31;53678;39.642;22.430;2022-10-13T17:28:57;19.62;61.00
65478;SHT31;53678;39.642;22.430;2022-10-13T17:31:23;19.67;60.96
65478;SHT31;53678;39.642;22.430;2022-10-13T17:33:50;19.86;60.75
65478;SHT31;53678;39.642;22.430;2022-10-13T17:36:24;19.78;61.03
65478;SHT31;53678;39.642;22.430;2022-10-13T17:38:51;19.61;61.67
65478;SHT31;53678;39.642;22.430;2022-10-13T17:41:18;19.51;62.10
65478;SHT31;53678;39.642;22.430;2022-10-13T17:43:49;19.57;62.03
65478;SHT31;53678;39.642;22.430;2022-10-13T17:46:27;19.44;62.10